createdAt,value
2023-01-29T00:01:43.195Z,-0.80
2023-01-29T00:05:51.771Z,-0.80
2023-01-29T00:10:00.331Z,-0.70
2023-01-29T00:14:09.176Z,-0.70
2023-01-29T00:18:17.725Z,-0.90
2023-01-29T00:22:26.284Z,-0.90
2023-01-29T00:26:34.864Z,-0.80
2023-01-29T00:30:44.195Z,-0.70
2023-01-29T00:34:52.765Z,-0.70
2023-01-29T00:39:04.201Z,-0.80
2023-01-29T00:43:30.369Z,-0.80
2023-01-29T00:47:39.013Z,-0.90
2023-01-29T00:52:05.428Z,-0.90
2023-01-29T00:56:13.992Z,-0.90
2023-01-29T01:00:22.704Z,-0.80
2023-01-29T01:04:32.221Z,-0.80
2023-01-29T01:08:59.462Z,-0.80
2023-01-29T01:13:08.572Z,-0.80
2023-01-29T01:17:17.446Z,-0.80
2023-01-29T01:21:26.009Z,-0.80
2023-01-29T01:25:34.566Z,-0.80
2023-01-29T01:29:43.129Z,-0.90
2023-01-29T01:33:53.517Z,-0.90
2023-01-29T01:38:02.076Z,-1.00
2023-01-29T01:42:14.643Z,-1.10
2023-01-29T01:46:23.869Z,-1.10
2023-01-29T01:50:38.199Z,-1.10
2023-01-29T01:54:47.505Z,-1.10
2023-01-29T01:58:59.501Z,-1.20
2023-01-29T02:03:27.850Z,-1.10
2023-01-29T02:07:55.815Z,-1.10
2023-01-29T02:12:07.203Z,-1.00
2023-01-29T02:16:15.774Z,-0.90
2023-01-29T02:20:31.836Z,-0.90
2023-01-29T02:24:58.443Z,-0.90
2023-01-29T02:29:32.182Z,-1.10
2023-01-29T02:38:28.448Z,-1.10
2023-01-29T02:42:40.087Z,-1.10
2023-01-29T02:47:03.356Z,-1.00
2023-01-29T02:51:24.025Z,-1.00
2023-01-29T02:55:41.384Z,-1.00
2023-01-29T02:59:53.005Z,-1.10
2023-01-29T03:04:04.703Z,-1.10
2023-01-29T03:08:16.368Z,-1.10
2023-01-29T03:12:36.581Z,-1.20
2023-01-29T03:16:53.416Z,-1.20
2023-01-29T03:21:06.680Z,-1.20
2023-01-29T03:25:34.052Z,-1.20
2023-01-29T03:30:02.776Z,-1.10
2023-01-29T03:34:21.738Z,-1.10
2023-01-29T03:38:31.655Z,-1.10
2023-01-29T03:43:10.405Z,-1.10
2023-01-29T03:47:27.545Z,-1.10
2023-01-29T03:51:54.062Z,-1.10
2023-01-29T03:56:11.328Z,-1.10
2023-01-29T04:00:31.685Z,-1.10
2023-01-29T04:04:43.407Z,-1.10
2023-01-29T04:09:18.963Z,-1.10
2023-01-29T04:13:30.125Z,-1.10
2023-01-29T04:17:41.308Z,-1.10
2023-01-29T04:21:53.260Z,-1.10
2023-01-29T04:26:13.531Z,-1.00
2023-01-29T04:30:46.362Z,-1.00
2023-01-29T04:35:03.297Z,-1.00
2023-01-29T04:39:21.177Z,-1.00
2023-01-29T04:43:32.850Z,-0.90
2023-01-29T04:47:53.386Z,-0.90
2023-01-29T04:52:05.044Z,-0.80
2023-01-29T04:56:28.272Z,-0.80
2023-01-29T05:00:39.938Z,-0.70
2023-01-29T05:04:50.594Z,-0.70
2023-01-29T05:09:01.901Z,-0.70
2023-01-29T05:13:13.264Z,-0.60
2023-01-29T05:17:22.143Z,-0.60
2023-01-29T05:21:30.786Z,-0.60
2023-01-29T05:25:39.367Z,-0.60
2023-01-29T05:29:48.358Z,-0.60
2023-01-29T05:33:56.943Z,-0.60
2023-01-29T05:38:05.593Z,-0.60
2023-01-29T05:42:14.152Z,-0.60
2023-01-29T05:46:22.746Z,-0.60
2023-01-29T05:50:31.371Z,-0.60
2023-01-29T05:54:40.428Z,-0.60
2023-01-29T05:58:48.993Z,-0.60
2023-01-29T06:02:59.296Z,-0.60
2023-01-29T06:07:07.903Z,-0.60
2023-01-29T06:11:18.200Z,-0.60
2023-01-29T06:15:27.496Z,-0.50
2023-01-29T06:19:36.072Z,-0.50
2023-01-29T06:23:44.629Z,-0.40
2023-01-29T06:27:53.250Z,-0.30
2023-01-29T06:32:01.887Z,-0.30
2023-01-29T06:36:10.933Z,-0.30
2023-01-29T06:40:19.830Z,-0.30
2023-01-29T06:44:28.389Z,-0.30
2023-01-29T06:48:37.476Z,-0.30
2023-01-29T06:52:46.038Z,-0.30
2023-01-29T06:56:54.598Z,-0.30
2023-01-29T07:01:15.502Z,-0.20
2023-01-29T07:05:21.565Z,-0.30
2023-01-29T07:09:30.193Z,-0.30
2023-01-29T07:13:38.834Z,-0.30
2023-01-29T07:17:58.650Z,-0.10
2023-01-29T07:22:07.234Z,-0.10
2023-01-29T07:26:16.004Z,-0.10
2023-01-29T07:30:24.584Z,-0.10
2023-01-29T07:34:33.151Z,-0.10
2023-01-29T07:38:41.813Z,0.00
2023-01-29T07:42:50.337Z,0.00
2023-01-29T07:46:58.937Z,0.00
2023-01-29T07:51:07.612Z,0.00
2023-01-29T07:55:16.209Z,0.10
2023-01-29T07:59:24.789Z,0.10
2023-01-29T08:03:33.337Z,0.10
2023-01-29T08:07:41.916Z,0.20
2023-01-29T08:11:50.472Z,0.20
2023-01-29T08:16:03.625Z,0.30
2023-01-29T08:20:12.866Z,0.30
2023-01-29T08:24:21.461Z,0.30
2023-01-29T08:28:29.997Z,0.40
2023-01-29T08:32:38.547Z,0.40
2023-01-29T08:36:47.486Z,0.40
2023-01-29T08:40:56.035Z,0.40
2023-01-29T08:45:05.617Z,0.40
2023-01-29T08:49:14.216Z,0.30
2023-01-29T08:53:24.434Z,0.40
2023-01-29T08:57:33.007Z,0.30
2023-01-29T09:01:41.532Z,0.40
2023-01-29T09:05:50.091Z,0.40
2023-01-29T09:09:58.653Z,0.40
2023-01-29T09:14:07.234Z,0.40
2023-01-29T09:18:15.766Z,0.50
2023-01-29T09:22:24.337Z,0.50
2023-01-29T09:26:32.875Z,0.50
2023-01-29T09:30:41.511Z,0.50
2023-01-29T09:34:50.079Z,0.50
2023-01-29T09:38:58.648Z,0.60
2023-01-29T09:43:16.367Z,0.60
2023-01-29T09:47:27.413Z,0.70
2023-01-29T09:51:44.519Z,0.70
2023-01-29T09:55:56.231Z,0.80
2023-01-29T10:00:05.348Z,0.80
2023-01-29T10:04:26.076Z,0.80
2023-01-29T10:09:06.095Z,0.80
2023-01-29T10:13:23.556Z,0.80
2023-01-29T10:18:00.535Z,0.90
2023-01-29T10:22:30.134Z,0.90
2023-01-29T10:26:40.538Z,1.00
2023-01-29T10:30:51.489Z,1.00
2023-01-29T10:35:06.400Z,1.10
2023-01-29T10:39:22.569Z,1.10
2023-01-29T10:43:50.415Z,1.10
2023-01-29T10:48:19.891Z,1.10
2023-01-29T10:52:58.280Z,1.20
2023-01-29T10:57:33.806Z,1.20
2023-01-29T11:01:42.458Z,1.20
2023-01-29T11:05:54.093Z,1.20
2023-01-29T11:10:05.784Z,1.30
2023-01-29T11:14:23.412Z,1.30
2023-01-29T11:18:35.029Z,1.30
2023-01-29T11:22:46.636Z,1.30
2023-01-29T11:27:00.244Z,1.30
2023-01-29T11:31:23.537Z,1.40
2023-01-29T11:35:33.246Z,1.50
2023-01-29T11:39:47.985Z,1.50
2023-01-29T11:43:58.195Z,1.50
2023-01-29T11:48:08.321Z,1.50
2023-01-29T11:52:20.196Z,1.50
2023-01-29T11:56:37.537Z,1.60
2023-01-29T12:00:49.262Z,1.60
2023-01-29T12:05:00.954Z,1.70
2023-01-29T12:09:16.826Z,1.70
2023-01-29T12:13:29.508Z,1.80
2023-01-29T12:17:40.212Z,1.90
2023-01-29T12:21:54.678Z,1.80
2023-01-29T12:26:09.184Z,1.90
2023-01-29T12:30:50.896Z,1.90
2023-01-29T12:35:17.208Z,2.00
2023-01-29T12:39:26.047Z,2.10
2023-01-29T12:43:45.920Z,2.10
2023-01-29T12:47:57.097Z,2.10
2023-01-29T12:52:09.504Z,2.10
2023-01-29T12:56:21.255Z,2.00
2023-01-29T13:00:39.853Z,2.10
2023-01-29T13:04:51.572Z,2.10
2023-01-29T13:09:05.880Z,2.20
2023-01-29T13:13:23.449Z,2.20
2023-01-29T13:17:38.004Z,2.20
2023-01-29T13:21:47.777Z,2.20
2023-01-29T13:25:56.354Z,2.20
2023-01-29T13:30:05.603Z,2.10
2023-01-29T13:34:16.859Z,2.10
2023-01-29T13:38:28.605Z,2.20
2023-01-29T13:42:48.606Z,2.20
2023-01-29T13:47:00.280Z,2.10
2023-01-29T13:51:16.135Z,2.10
2023-01-29T13:55:29.407Z,2.20
2023-01-29T13:59:53.052Z,2.10
2023-01-29T14:04:05.789Z,2.10
2023-01-29T14:08:17.684Z,2.10
2023-01-29T14:12:29.312Z,2.20
2023-01-29T14:16:38.070Z,2.20
2023-01-29T14:21:01.338Z,2.20
2023-01-29T14:25:12.995Z,2.20
2023-01-29T14:29:34.359Z,2.20
2023-01-29T14:33:43.373Z,2.10
2023-01-29T14:37:57.893Z,2.20
2023-01-29T14:42:09.529Z,2.20
2023-01-29T14:46:39.139Z,2.20
2023-01-29T14:50:50.305Z,2.20
2023-01-29T14:55:01.367Z,2.20
2023-01-29T14:59:40.082Z,2.20
2023-01-29T15:03:52.084Z,2.30
2023-01-29T15:08:09.453Z,2.20
2023-01-29T15:12:36.018Z,2.20
2023-01-29T15:16:59.212Z,2.20
2023-01-29T15:21:13.376Z,2.30
2023-01-29T15:25:22.672Z,2.20
2023-01-29T15:29:31.576Z,2.30
2023-01-29T15:33:43.426Z,2.30
2023-01-29T15:38:00.625Z,2.20
2023-01-29T15:42:17.552Z,2.20
2023-01-29T15:46:37.888Z,2.30
2023-01-29T15:50:46.893Z,2.30
2023-01-29T15:54:58.386Z,2.30
2023-01-29T15:59:10.201Z,2.30
2023-01-29T16:03:21.540Z,2.30
2023-01-29T16:07:30.606Z,2.40
2023-01-29T16:11:40.190Z,2.30
2023-01-29T16:16:03.077Z,2.30
2023-01-29T16:20:31.632Z,2.30
2023-01-29T16:24:40.272Z,2.30
2023-01-29T16:28:49.277Z,2.30
2023-01-29T16:33:05.779Z,2.30
2023-01-29T16:37:29.303Z,2.40
2023-01-29T16:41:38.562Z,2.30
2023-01-29T16:46:22.275Z,2.30
2023-01-29T16:50:40.500Z,2.30
2023-01-29T16:54:44.614Z,2.30
2023-01-29T16:58:55.118Z,2.40
2023-01-29T17:03:08.244Z,2.30
2023-01-29T17:07:19.993Z,2.30
2023-01-29T17:11:37.480Z,2.30
2023-01-29T17:15:47.702Z,2.30
2023-01-29T17:19:56.382Z,2.40
2023-01-29T17:24:05.112Z,2.50
2023-01-29T17:28:15.927Z,2.50
2023-01-29T17:32:44.643Z,2.40
2023-01-29T17:36:37.832Z,2.50
2023-01-29T17:40:52.327Z,2.40
2023-01-29T17:45:00.910Z,2.40
2023-01-29T17:49:24.220Z,2.50
2023-01-29T17:53:45.199Z,2.40
2023-01-29T17:57:43.042Z,2.50
2023-01-29T18:01:53.102Z,2.50
2023-01-29T18:06:02.201Z,2.40
2023-01-29T18:10:16.746Z,2.50
2023-01-29T18:14:25.387Z,2.50
2023-01-29T18:18:33.958Z,2.40
2023-01-29T18:22:42.514Z,2.60
2023-01-29T18:26:51.316Z,2.60
2023-01-29T18:31:01.536Z,2.60
2023-01-29T18:35:10.566Z,2.60
2023-01-29T18:39:19.128Z,2.50
2023-01-29T18:43:27.697Z,2.60
2023-01-29T18:47:36.262Z,2.60
2023-01-29T18:51:44.834Z,2.50
2023-01-29T18:55:58.483Z,2.60
2023-01-29T19:00:07.904Z,2.60
2023-01-29T19:04:16.562Z,2.70
2023-01-29T19:08:25.127Z,2.60
2023-01-29T19:12:34.438Z,2.70
2023-01-29T19:16:43.661Z,2.60
2023-01-29T19:20:52.772Z,2.70
2023-01-29T19:25:01.508Z,2.70
2023-01-29T19:29:10.078Z,2.70
2023-01-29T19:33:18.659Z,2.70
2023-01-29T19:37:28.265Z,2.80
2023-01-29T19:41:36.927Z,2.70
2023-01-29T19:45:50.929Z,2.80
2023-01-29T19:49:59.486Z,2.80
2023-01-29T19:54:08.061Z,2.70
2023-01-29T19:58:16.638Z,2.80
2023-01-29T20:02:25.412Z,2.80
2023-01-29T20:06:33.989Z,2.80
2023-01-29T20:10:47.102Z,2.80
2023-01-29T20:14:55.673Z,2.90
2023-01-29T20:19:13.332Z,2.80
2023-01-29T20:23:22.339Z,2.90
2023-01-29T20:27:26.615Z,2.70
2023-01-29T20:31:35.339Z,2.80
2023-01-29T20:35:43.913Z,2.70
2023-01-29T20:39:52.480Z,2.80
2023-01-29T20:44:01.038Z,2.90
2023-01-29T20:48:11.208Z,2.80
2023-01-29T20:52:19.891Z,2.70
2023-01-29T20:56:37.091Z,2.80
2023-01-29T21:00:38.969Z,2.90
2023-01-29T21:04:47.496Z,2.90
2023-01-29T21:08:56.227Z,2.80
2023-01-29T21:13:04.868Z,2.80
2023-01-29T21:17:13.428Z,2.80
2023-01-29T21:21:21.979Z,2.90
2023-01-29T21:25:31.165Z,2.90
2023-01-29T21:29:39.713Z,3.00
2023-01-29T21:33:48.289Z,3.10
2023-01-29T21:37:56.829Z,3.00
2023-01-29T21:42:23.207Z,3.10
2023-01-29T21:46:31.754Z,3.00
2023-01-29T21:50:40.386Z,3.00
2023-01-29T21:54:49.105Z,3.00
2023-01-29T21:58:59.324Z,3.10
2023-01-29T22:03:07.962Z,3.10
2023-01-29T22:07:16.585Z,3.10
2023-01-29T22:11:25.349Z,3.10
2023-01-29T22:15:33.922Z,3.30
2023-01-29T22:19:42.949Z,3.30
2023-01-29T22:23:51.508Z,3.50
2023-01-29T22:28:00.078Z,3.40
2023-01-29T22:32:08.865Z,3.50
2023-01-29T22:36:17.618Z,3.50
2023-01-29T22:40:26.621Z,3.40
2023-01-29T22:44:35.247Z,3.40
2023-01-29T22:48:43.912Z,3.40
2023-01-29T22:52:54.164Z,3.40
2023-01-29T22:57:02.802Z,3.40
2023-01-29T23:01:11.595Z,3.40
2023-01-29T23:05:20.164Z,3.50
2023-01-29T23:09:28.721Z,3.50
2023-01-29T23:13:37.265Z,3.50
2023-01-29T23:17:45.820Z,3.60
2023-01-29T23:21:54.370Z,3.50
2023-01-29T23:26:23.100Z,3.50
2023-01-29T23:30:31.653Z,3.50
2023-01-29T23:34:40.475Z,3.40
2023-01-29T23:38:49.131Z,3.50
2023-01-29T23:42:57.733Z,3.50
2023-01-29T23:47:06.300Z,3.60
2023-01-29T23:51:14.920Z,3.70
2023-01-29T23:55:23.481Z,3.60
2023-01-29T23:59:32.074Z,3.60
